createdAt,value
2023-03-02T00:01:06.213Z,5.30
2023-03-02T00:03:36.356Z,5.20
2023-03-02T00:06:04.115Z,5.20
2023-03-02T00:08:31.919Z,5.20
2023-03-02T00:11:00.857Z,5.20
2023-03-02T00:13:30.084Z,5.20
2023-03-02T00:15:56.952Z,5.20
2023-03-02T00:18:23.904Z,5.20
2023-03-02T00:20:52.174Z,5.20
2023-03-02T00:23:19.165Z,5.30
2023-03-02T00:25:46.247Z,5.30
2023-03-02T00:28:13.041Z,5.30
2023-03-02T00:30:40.466Z,5.30
2023-03-02T00:33:07.352Z,5.30
2023-03-02T00:35:37.817Z,5.30
2023-03-02T00:38:07.203Z,5.30
2023-03-02T00:40:34.154Z,5.20
2023-03-02T00:43:01.180Z,5.20
2023-03-02T00:45:28.030Z,5.20
2023-03-02T00:47:54.875Z,5.10
2023-03-02T00:50:21.835Z,5.10
2023-03-02T00:52:48.671Z,5.10
2023-03-02T00:55:17.074Z,5.10
2023-03-02T00:57:43.977Z,5.10
2023-03-02T01:00:11.721Z,5.00
2023-03-02T01:02:43.875Z,5.00
2023-03-02T01:05:10.896Z,4.90
2023-03-02T01:07:37.772Z,4.90
2023-03-02T01:10:05.451Z,4.90
2023-03-02T01:12:33.774Z,4.90
2023-03-02T01:15:00.813Z,5.00
2023-03-02T01:17:27.858Z,5.00
2023-03-02T01:19:55.114Z,5.00
2023-03-02T01:22:22.734Z,5.00
2023-03-02T01:24:49.667Z,5.00
2023-03-02T01:27:16.584Z,5.00
2023-03-02T01:29:45.102Z,5.00
2023-03-02T01:32:12.132Z,5.00
2023-03-02T01:34:38.971Z,5.00
2023-03-02T01:37:05.821Z,4.90
2023-03-02T01:39:32.909Z,4.80
2023-03-02T01:41:59.828Z,4.80
2023-03-02T01:44:42.122Z,4.70
2023-03-02T01:47:19.961Z,4.60
2023-03-02T01:49:53.147Z,4.60
2023-03-02T01:52:20.779Z,4.60
2023-03-02T01:54:49.934Z,4.50
2023-03-02T01:57:21.377Z,4.50
2023-03-02T01:59:50.382Z,4.50
2023-03-02T02:02:18.761Z,4.50
2023-03-02T02:04:47.738Z,4.50
2023-03-02T02:07:15.607Z,4.50
2023-03-02T02:09:46.389Z,4.50
2023-03-02T02:12:14.679Z,4.50
2023-03-02T02:14:42.458Z,4.50
2023-03-02T02:17:10.045Z,4.40
2023-03-02T02:20:08.170Z,4.40
2023-03-02T02:22:51.878Z,4.40
2023-03-02T02:25:29.554Z,4.40
2023-03-02T02:27:57.889Z,4.40
2023-03-02T02:30:25.906Z,4.40
2023-03-02T02:32:54.594Z,4.40
2023-03-02T02:35:24.989Z,4.50
2023-03-02T02:37:54.382Z,4.50
2023-03-02T02:40:23.921Z,4.50
2023-03-02T02:42:52.609Z,4.40
2023-03-02T02:45:24.249Z,4.40
2023-03-02T02:47:52.373Z,4.40
2023-03-02T02:50:22.980Z,4.50
2023-03-02T02:52:55.612Z,4.50
2023-03-02T02:55:24.655Z,4.50
2023-03-02T02:57:53.487Z,4.50
2023-03-02T03:00:23.163Z,4.60
2023-03-02T03:02:55.781Z,4.60
2023-03-02T03:05:22.616Z,4.60
2023-03-02T03:07:49.497Z,4.60
2023-03-02T03:10:23.022Z,4.60
2023-03-02T03:12:50.558Z,4.60
2023-03-02T03:15:17.777Z,4.40
2023-03-02T03:17:53.293Z,4.70
2023-03-02T03:20:20.632Z,4.70
2023-03-02T03:22:47.471Z,4.70
2023-03-02T03:25:15.365Z,4.70
2023-03-02T03:27:42.846Z,4.70
2023-03-02T03:30:12.045Z,4.70
2023-03-02T03:32:38.871Z,4.70
2023-03-02T03:35:10.893Z,4.70
2023-03-02T03:37:39.678Z,4.70
2023-03-02T03:40:09.777Z,4.70
2023-03-02T03:42:37.417Z,4.70
2023-03-02T03:45:04.989Z,4.70
2023-03-02T03:47:31.890Z,4.70
2023-03-02T03:49:58.737Z,4.70
2023-03-02T03:52:33.045Z,4.70
2023-03-02T03:55:00.587Z,4.70
2023-03-02T03:57:28.029Z,4.70
2023-03-02T03:59:55.190Z,4.70
2023-03-02T04:02:22.648Z,4.70
2023-03-02T04:04:49.537Z,4.70
2023-03-02T04:07:16.575Z,4.80
2023-03-02T04:09:44.781Z,4.70
2023-03-02T04:12:12.350Z,4.70
2023-03-02T04:14:41.252Z,4.70
2023-03-02T04:17:08.132Z,4.60
2023-03-02T04:19:35.593Z,4.60
2023-03-02T04:22:04.234Z,4.50
2023-03-02T04:24:32.667Z,4.50
2023-03-02T04:27:00.986Z,4.50
2023-03-02T04:29:27.853Z,4.50
2023-03-02T04:31:54.850Z,4.50
2023-03-02T04:34:21.699Z,4.50
2023-03-02T04:36:48.527Z,4.50
2023-03-02T04:39:16.963Z,4.50
2023-03-02T04:41:44.658Z,4.50
2023-03-02T04:44:13.927Z,4.50
2023-03-02T04:46:44.223Z,4.50
2023-03-02T04:49:11.958Z,4.40
2023-03-02T04:51:41.858Z,4.40
2023-03-02T04:54:15.175Z,4.30
2023-03-02T04:56:42.116Z,4.30
2023-03-02T04:59:08.966Z,4.30
2023-03-02T05:01:37.236Z,4.30
2023-03-02T05:04:04.631Z,4.30
2023-03-02T05:06:31.900Z,4.30
2023-03-02T05:09:00.198Z,4.30
2023-03-02T05:11:27.525Z,4.30
2023-03-02T05:13:56.819Z,4.30
2023-03-02T05:16:25.298Z,4.30
2023-03-02T05:18:53.572Z,4.30
2023-03-02T05:21:20.726Z,4.30
2023-03-02T05:23:47.916Z,4.20
2023-03-02T05:26:15.049Z,4.20
2023-03-02T05:28:42.438Z,4.20
2023-03-02T05:31:11.722Z,4.20
2023-03-02T05:33:38.598Z,4.10
2023-03-02T05:36:07.146Z,4.10
2023-03-02T05:38:34.512Z,4.10
2023-03-02T05:41:01.713Z,4.10
2023-03-02T05:43:28.713Z,4.10
2023-03-02T05:46:00.271Z,4.10
2023-03-02T05:48:27.816Z,4.10
2023-03-02T05:50:54.626Z,4.10
2023-03-02T05:53:23.235Z,4.10
2023-03-02T05:55:50.387Z,4.10
2023-03-02T05:58:18.993Z,4.10
2023-03-02T06:00:46.789Z,4.10
2023-03-02T06:03:14.041Z,4.10
2023-03-02T06:05:40.891Z,4.00
2023-03-02T06:08:07.773Z,4.10
2023-03-02T06:10:36.573Z,4.10
2023-03-02T06:13:03.524Z,4.10
2023-03-02T06:15:30.462Z,4.10
2023-03-02T06:17:57.844Z,4.10
2023-03-02T06:20:24.899Z,4.10
2023-03-02T06:22:51.919Z,4.10
2023-03-02T06:25:20.597Z,4.10
2023-03-02T06:27:53.747Z,4.10
2023-03-02T06:30:24.606Z,4.20
2023-03-02T06:32:52.015Z,4.10
2023-03-02T06:35:19.375Z,4.40
2023-03-02T06:37:46.361Z,4.60
2023-03-02T06:40:14.271Z,4.70
2023-03-02T06:42:42.488Z,4.90
2023-03-02T06:45:11.855Z,5.20
2023-03-02T06:47:39.171Z,5.40
2023-03-02T06:50:07.178Z,5.70
2023-03-02T06:52:35.202Z,6.00
2023-03-02T06:55:02.187Z,6.20
2023-03-02T06:57:33.848Z,6.50
2023-03-02T07:00:01.774Z,6.70
2023-03-02T07:02:29.960Z,7.00
2023-03-02T07:04:56.750Z,7.40
2023-03-02T07:07:23.620Z,7.70
2023-03-02T07:09:50.684Z,8.00
2023-03-02T07:12:17.592Z,8.30
2023-03-02T07:14:44.441Z,8.70
2023-03-02T07:17:11.408Z,9.20
2023-03-02T07:19:40.970Z,9.70
2023-03-02T07:22:07.942Z,10.20
2023-03-02T07:24:34.851Z,10.60
2023-03-02T07:27:01.670Z,11.10
2023-03-02T07:29:28.737Z,11.60
2023-03-02T07:31:57.375Z,12.00
2023-03-02T07:34:24.835Z,12.50
2023-03-02T07:36:53.570Z,12.90
2023-03-02T07:39:20.562Z,13.30
2023-03-02T07:41:47.497Z,13.60
2023-03-02T07:44:14.893Z,14.00
2023-03-02T07:46:42.014Z,14.40
2023-03-02T07:49:08.946Z,14.70
2023-03-02T07:51:35.870Z,15.00
2023-03-02T07:54:05.069Z,15.30
2023-03-02T07:56:31.925Z,15.70
2023-03-02T07:58:58.860Z,16.10
2023-03-02T08:01:25.933Z,16.40
2023-03-02T08:03:52.900Z,16.70
2023-03-02T08:06:20.021Z,17.00
2023-03-02T08:08:46.982Z,17.40
2023-03-02T08:11:17.112Z,17.60
2023-03-02T08:13:44.801Z,17.80
2023-03-02T08:16:13.876Z,18.10
2023-03-02T08:18:41.355Z,18.20
2023-03-02T08:21:12.992Z,18.60
2023-03-02T08:23:40.511Z,18.90
2023-03-02T08:26:07.787Z,19.20
2023-03-02T08:28:36.426Z,19.40
2023-03-02T08:31:04.298Z,19.50
2023-03-02T08:33:31.568Z,19.40
2023-03-02T08:36:00.401Z,19.80
2023-03-02T08:38:27.769Z,20.00
2023-03-02T08:40:54.760Z,20.30
2023-03-02T08:43:22.905Z,20.50
2023-03-02T08:45:53.134Z,20.70
2023-03-02T08:48:28.507Z,20.80
2023-03-02T08:50:56.793Z,20.90
2023-03-02T08:53:23.683Z,21.00
2023-03-02T08:55:57.493Z,21.30
2023-03-02T08:58:24.764Z,21.60
2023-03-02T09:00:53.053Z,21.80
2023-03-02T09:03:26.503Z,22.00
2023-03-02T09:05:54.661Z,22.30
2023-03-02T09:08:35.498Z,22.50
2023-03-02T09:11:10.572Z,22.70
2023-03-02T09:13:44.500Z,22.90
2023-03-02T09:16:13.477Z,23.10
2023-03-02T09:18:40.656Z,23.30
2023-03-02T09:21:13.540Z,23.50
2023-03-02T09:23:40.414Z,23.60
2023-03-02T09:26:08.031Z,23.60
2023-03-02T09:28:42.529Z,23.60
2023-03-02T09:31:09.462Z,23.70
2023-03-02T09:33:37.857Z,23.80
2023-03-02T09:36:16.512Z,23.80
2023-03-02T09:38:43.399Z,24.00
2023-03-02T09:41:38.549Z,24.10
2023-03-02T09:44:23.699Z,24.00
2023-03-02T09:47:00.486Z,24.00
2023-03-02T09:49:44.229Z,24.10
2023-03-02T09:52:28.524Z,24.20
2023-03-02T09:54:55.883Z,24.70
2023-03-02T09:57:26.884Z,24.70
2023-03-02T10:00:18.342Z,24.80
2023-03-02T10:02:48.787Z,24.90
2023-03-02T10:05:29.527Z,24.90
2023-03-02T10:08:03.675Z,24.80
2023-03-02T10:10:49.526Z,24.60
2023-03-02T10:13:25.341Z,24.30
2023-03-02T10:16:10.531Z,24.60
2023-03-02T10:18:41.915Z,24.80
2023-03-02T10:21:27.505Z,25.10
2023-03-02T10:23:58.910Z,25.00
2023-03-02T10:26:46.598Z,24.70
2023-03-02T10:29:39.887Z,24.30
2023-03-02T10:32:24.663Z,23.80
2023-03-02T10:34:53.017Z,23.60
2023-03-02T10:37:31.543Z,23.60
2023-03-02T10:39:58.420Z,23.60
2023-03-02T10:42:29.871Z,23.80
2023-03-02T10:45:09.553Z,23.90
2023-03-02T10:47:36.390Z,24.10
2023-03-02T10:50:03.465Z,24.50
2023-03-02T10:52:39.929Z,24.90
2023-03-02T10:55:14.893Z,24.80
2023-03-02T10:57:50.589Z,24.70
2023-03-02T11:00:22.443Z,24.90
2023-03-02T11:02:57.554Z,24.90
2023-03-02T11:05:30.030Z,25.10
2023-03-02T11:08:06.536Z,25.10
2023-03-02T11:10:41.590Z,25.30
2023-03-02T11:13:24.528Z,25.50
2023-03-02T11:15:53.391Z,25.80
2023-03-02T11:18:32.582Z,25.90
2023-03-02T11:21:04.525Z,25.40
2023-03-02T11:23:47.516Z,25.20
2023-03-02T11:26:20.793Z,25.30
2023-03-02T11:28:59.550Z,25.40
2023-03-02T11:31:37.709Z,25.30
2023-03-02T11:34:18.309Z,25.20
2023-03-02T11:36:56.432Z,24.90
2023-03-02T11:39:28.964Z,24.40
2023-03-02T11:41:55.996Z,23.90
2023-03-02T11:44:24.744Z,23.50
2023-03-02T11:47:00.880Z,23.10
2023-03-02T11:49:37.223Z,22.40
2023-03-02T11:52:04.472Z,21.70
2023-03-02T11:54:42.563Z,21.10
2023-03-02T11:57:21.394Z,20.70
2023-03-02T11:59:50.433Z,20.30
2023-03-02T12:02:18.439Z,19.90
2023-03-02T12:04:46.777Z,19.30
2023-03-02T12:07:19.889Z,19.10
2023-03-02T12:09:57.792Z,18.50
2023-03-02T12:12:40.916Z,18.10
2023-03-02T12:15:37.046Z,17.90
2023-03-02T12:18:16.163Z,17.60
2023-03-02T12:20:43.129Z,17.30
2023-03-02T12:23:22.295Z,17.10
2023-03-02T12:26:02.356Z,16.80
2023-03-02T12:28:32.385Z,16.60
2023-03-02T12:31:04.842Z,16.40
2023-03-02T12:33:31.757Z,16.30
2023-03-02T12:36:11.074Z,16.30
2023-03-02T12:38:40.928Z,16.40
2023-03-02T12:41:22.891Z,16.70
2023-03-02T12:44:03.880Z,16.80
2023-03-02T12:46:33.256Z,17.00
2023-03-02T12:49:13.703Z,17.20
2023-03-02T12:51:49.635Z,17.40
2023-03-02T12:54:18.654Z,17.70
2023-03-02T12:56:48.127Z,17.80
2023-03-02T12:59:23.402Z,17.80
2023-03-02T13:01:50.418Z,17.70
2023-03-02T13:04:25.635Z,17.70
2023-03-02T13:06:52.907Z,17.70
2023-03-02T13:09:20.422Z,17.70
2023-03-02T13:11:49.503Z,17.70
2023-03-02T13:14:22.332Z,17.80
2023-03-02T13:16:57.882Z,17.70
2023-03-02T13:19:26.028Z,17.60
2023-03-02T13:21:53.209Z,17.60
2023-03-02T13:24:35.878Z,17.60
2023-03-02T13:27:07.736Z,17.80
2023-03-02T13:29:34.673Z,17.80
2023-03-02T13:32:18.350Z,17.90
2023-03-02T13:34:51.255Z,18.00
2023-03-02T13:37:31.521Z,18.00
2023-03-02T13:40:01.996Z,17.90
2023-03-02T13:42:41.178Z,17.80
2023-03-02T13:45:24.177Z,17.80
2023-03-02T13:47:51.412Z,17.60
2023-03-02T13:50:20.137Z,17.40
2023-03-02T13:52:47.233Z,17.20
2023-03-02T13:55:15.484Z,17.00
2023-03-02T13:57:45.838Z,17.00
2023-03-02T14:00:16.058Z,17.00
2023-03-02T14:02:43.696Z,16.90
2023-03-02T14:05:18.102Z,16.70
2023-03-02T14:07:46.423Z,16.70
2023-03-02T14:10:14.579Z,16.70
2023-03-02T14:12:49.652Z,16.60
2023-03-02T14:15:16.946Z,16.70
2023-03-02T14:17:44.008Z,16.70
2023-03-02T14:20:13.680Z,16.70
2023-03-02T14:22:41.192Z,16.70
2023-03-02T14:25:08.831Z,16.60
2023-03-02T14:27:36.134Z,16.50
2023-03-02T14:30:13.808Z,16.40
2023-03-02T14:32:40.872Z,16.40
2023-03-02T14:35:11.410Z,16.30
2023-03-02T14:37:42.388Z,16.20
2023-03-02T14:40:16.559Z,16.20
2023-03-02T14:42:43.459Z,16.30
2023-03-02T14:45:12.579Z,16.30
2023-03-02T14:47:39.923Z,16.30
2023-03-02T14:50:07.264Z,16.40
2023-03-02T14:52:38.040Z,16.40
2023-03-02T14:55:08.480Z,16.60
2023-03-02T14:57:38.525Z,16.70
2023-03-02T15:00:07.849Z,16.90
2023-03-02T15:02:36.544Z,16.90
2023-03-02T15:05:03.751Z,16.90
2023-03-02T15:07:30.664Z,16.80
2023-03-02T15:09:58.300Z,16.70
2023-03-02T15:12:25.601Z,16.60
2023-03-02T15:14:52.547Z,16.60
2023-03-02T15:17:19.624Z,16.50
2023-03-02T15:19:48.245Z,16.40
2023-03-02T15:22:15.771Z,16.30
2023-03-02T15:24:42.663Z,16.30
2023-03-02T15:27:09.605Z,16.30
2023-03-02T15:29:36.526Z,16.30
2023-03-02T15:32:03.705Z,16.20
2023-03-02T15:34:30.656Z,16.10
2023-03-02T15:36:58.888Z,16.10
2023-03-02T15:39:25.798Z,16.00
2023-03-02T15:41:53.929Z,15.90
2023-03-02T15:44:23.837Z,15.90
2023-03-02T15:46:53.374Z,16.00
2023-03-02T15:49:22.801Z,15.90
2023-03-02T15:51:51.573Z,15.80
2023-03-02T15:54:20.299Z,15.70
2023-03-02T15:56:53.144Z,15.60
2023-03-02T15:59:20.388Z,15.50
2023-03-02T16:01:47.305Z,15.40
2023-03-02T16:04:14.271Z,15.30
2023-03-02T16:06:41.309Z,15.20
2023-03-02T16:09:08.108Z,15.10
2023-03-02T16:11:39.301Z,15.00
2023-03-02T16:14:06.148Z,15.00
2023-03-02T16:16:33.288Z,14.90
2023-03-02T16:19:01.204Z,14.90
2023-03-02T16:21:28.740Z,14.80
2023-03-02T16:24:02.997Z,14.70
2023-03-02T16:26:30.609Z,14.60
2023-03-02T16:28:59.402Z,14.60
2023-03-02T16:31:27.084Z,14.50
2023-03-02T16:33:55.676Z,14.50
2023-03-02T16:36:22.949Z,14.40
2023-03-02T16:38:49.935Z,14.20
2023-03-02T16:41:18.746Z,14.10
2023-03-02T16:43:47.453Z,13.90
2023-03-02T16:46:17.004Z,13.80
2023-03-02T16:48:44.901Z,13.60
2023-03-02T16:51:12.469Z,13.60
2023-03-02T16:53:40.709Z,13.40
2023-03-02T16:56:08.047Z,13.40
2023-03-02T16:58:38.200Z,13.30
2023-03-02T17:01:05.942Z,13.20
2023-03-02T17:03:35.435Z,13.10
2023-03-02T17:06:02.451Z,13.00
2023-03-02T17:08:29.432Z,13.00
2023-03-02T17:10:56.326Z,12.90
2023-03-02T17:13:23.230Z,12.80
2023-03-02T17:15:50.165Z,12.70
2023-03-02T17:18:17.375Z,12.70
2023-03-02T17:20:45.652Z,12.60
2023-03-02T17:23:14.042Z,12.50
2023-03-02T17:25:40.917Z,12.40
2023-03-02T17:28:07.949Z,12.40
2023-03-02T17:30:34.913Z,12.30
2023-03-02T17:33:01.862Z,12.30
2023-03-02T17:35:28.776Z,12.20
2023-03-02T17:37:57.014Z,12.10
2023-03-02T17:40:24.039Z,12.00
2023-03-02T17:42:54.302Z,11.90
2023-03-02T17:45:24.460Z,11.70
2023-03-02T17:47:52.301Z,11.60
2023-03-02T17:50:19.740Z,11.40
2023-03-02T17:52:47.100Z,11.30
2023-03-02T17:55:15.988Z,11.20
2023-03-02T17:57:43.246Z,11.10
2023-03-02T18:00:13.959Z,11.10
2023-03-02T18:02:40.898Z,11.00
2023-03-02T18:05:10.156Z,11.00
2023-03-02T18:07:37.552Z,10.90
2023-03-02T18:10:05.585Z,10.80
2023-03-02T18:12:34.441Z,10.80
2023-03-02T18:15:01.389Z,10.70
2023-03-02T18:17:28.438Z,10.60
2023-03-02T18:19:55.330Z,10.50
2023-03-02T18:22:22.330Z,10.50
2023-03-02T18:24:50.432Z,10.40
2023-03-02T18:27:17.583Z,10.40
2023-03-02T18:29:45.860Z,10.40
2023-03-02T18:32:12.835Z,10.40
2023-03-02T18:34:39.864Z,10.40
2023-03-02T18:37:06.870Z,10.30
2023-03-02T18:39:33.694Z,10.30
2023-03-02T18:42:00.627Z,10.30
2023-03-02T18:44:28.376Z,10.30
2023-03-02T18:46:57.313Z,10.30
2023-03-02T18:49:24.651Z,10.30
2023-03-02T18:51:52.851Z,10.30
2023-03-02T18:54:19.869Z,10.30
2023-03-02T18:56:46.788Z,10.30
2023-03-02T18:59:13.934Z,10.20
2023-03-02T19:01:41.012Z,10.20
2023-03-02T19:04:09.335Z,10.10
2023-03-02T19:06:36.319Z,10.10
2023-03-02T19:09:03.468Z,10.10
2023-03-02T19:11:30.389Z,10.00
2023-03-02T19:13:57.319Z,10.00
2023-03-02T19:16:24.197Z,10.00
2023-03-02T19:18:51.179Z,10.00
2023-03-02T19:21:19.504Z,9.90
2023-03-02T19:23:46.676Z,9.90
2023-03-02T19:26:13.930Z,9.80
2023-03-02T19:28:40.808Z,9.80
2023-03-02T19:31:09.649Z,9.70
2023-03-02T19:33:36.772Z,9.70
2023-03-02T19:36:04.595Z,9.70
2023-03-02T19:38:33.005Z,9.60
2023-03-02T19:41:01.979Z,9.50
2023-03-02T19:43:29.163Z,9.40
2023-03-02T19:45:56.188Z,9.40
2023-03-02T19:48:23.151Z,9.30
2023-03-02T19:50:51.539Z,9.30
2023-03-02T19:53:18.464Z,9.30
2023-03-02T19:55:46.944Z,9.20
2023-03-02T19:58:19.035Z,9.20
2023-03-02T20:00:46.925Z,9.20
2023-03-02T20:03:14.463Z,9.20
2023-03-02T20:05:41.355Z,9.20
2023-03-02T20:08:08.726Z,9.10
2023-03-02T20:10:37.784Z,9.10
2023-03-02T20:13:07.309Z,9.10
2023-03-02T20:15:38.093Z,9.00
2023-03-02T20:18:06.368Z,8.90
2023-03-02T20:20:33.491Z,8.70
2023-03-02T20:23:00.368Z,8.90
2023-03-02T20:25:28.511Z,8.80
2023-03-02T20:27:55.822Z,8.80
2023-03-02T20:30:28.742Z,8.80
2023-03-02T20:32:56.533Z,8.80
2023-03-02T20:35:24.785Z,8.70
2023-03-02T20:37:52.557Z,8.70
2023-03-02T20:40:19.974Z,8.70
2023-03-02T20:42:46.886Z,8.70
2023-03-02T20:45:14.194Z,8.60
2023-03-02T20:47:45.381Z,8.60
2023-03-02T20:50:16.890Z,8.60
2023-03-02T20:52:43.820Z,8.70
2023-03-02T20:55:11.240Z,8.60
2023-03-02T20:57:38.496Z,8.70
2023-03-02T21:00:07.062Z,8.70
2023-03-02T21:02:34.116Z,8.70
2023-03-02T21:05:02.496Z,8.70
2023-03-02T21:07:29.519Z,8.70
2023-03-02T21:09:56.509Z,8.70
2023-03-02T21:12:23.670Z,8.60
2023-03-02T21:14:50.721Z,8.60
2023-03-02T21:17:17.577Z,8.60
2023-03-02T21:19:44.490Z,8.50
2023-03-02T21:22:12.712Z,8.50
2023-03-02T21:24:39.645Z,8.60
2023-03-02T21:27:07.273Z,8.50
2023-03-02T21:29:34.282Z,8.50
2023-03-02T21:32:01.330Z,8.50
2023-03-02T21:34:28.586Z,8.50
2023-03-02T21:36:55.604Z,8.50
2023-03-02T21:39:24.005Z,8.40
2023-03-02T21:41:51.344Z,8.40
2023-03-02T21:44:19.028Z,8.30
2023-03-02T21:46:46.481Z,8.10
2023-03-02T21:49:16.301Z,8.30
2023-03-02T21:51:43.226Z,8.20
2023-03-02T21:54:10.087Z,8.20
2023-03-02T21:56:38.638Z,8.10
2023-03-02T21:59:05.807Z,8.10
2023-03-02T22:01:33.033Z,8.10
2023-03-02T22:04:00.580Z,8.20
2023-03-02T22:06:29.521Z,8.20
2023-03-02T22:08:57.300Z,8.20
2023-03-02T22:11:26.076Z,8.20
2023-03-02T22:13:57.412Z,8.20
2023-03-02T22:16:26.472Z,8.20
2023-03-02T22:18:55.825Z,8.10
2023-03-02T22:21:30.223Z,8.00
2023-03-02T22:24:09.765Z,8.00
2023-03-02T22:26:40.228Z,8.00
2023-03-02T22:29:14.395Z,8.00
2023-03-02T22:31:46.612Z,8.00
2023-03-02T22:34:15.195Z,7.90
2023-03-02T22:36:42.238Z,7.80
2023-03-02T22:39:16.907Z,7.70
2023-03-02T22:41:44.185Z,7.70
2023-03-02T22:44:13.475Z,7.60
2023-03-02T22:46:41.183Z,7.60
2023-03-02T22:49:16.158Z,7.50
2023-03-02T22:51:44.513Z,7.50
2023-03-02T22:54:21.609Z,7.50
2023-03-02T22:56:50.488Z,7.50
2023-03-02T22:59:22.561Z,7.50
2023-03-02T23:01:49.577Z,7.50
2023-03-02T23:04:19.494Z,7.50
2023-03-02T23:06:48.400Z,7.50
2023-03-02T23:09:18.005Z,7.50
2023-03-02T23:11:45.494Z,7.50
2023-03-02T23:14:21.493Z,7.50
2023-03-02T23:16:53.266Z,7.50
2023-03-02T23:19:20.408Z,7.50
2023-03-02T23:21:48.901Z,7.50
2023-03-02T23:24:18.899Z,7.50
2023-03-02T23:26:48.208Z,7.50
2023-03-02T23:29:15.533Z,7.40
2023-03-02T23:31:43.904Z,7.40
2023-03-02T23:34:11.516Z,7.30
2023-03-02T23:36:39.663Z,7.30
2023-03-02T23:39:07.681Z,7.20
2023-03-02T23:41:35.195Z,7.10
2023-03-02T23:44:02.325Z,7.10
2023-03-02T23:46:29.631Z,7.00
2023-03-02T23:48:57.850Z,7.00
2023-03-02T23:51:25.523Z,7.00
2023-03-02T23:53:52.814Z,7.00
2023-03-02T23:56:20.261Z,6.90
2023-03-02T23:58:48.007Z,6.90
